Charter Quote
Worldwide +1-877-727-2538 Call
Select Language Lang
SAFETY RELIABILITY EXPERIENCE

Private Jet Charter Services - Wai Sha Airport (ZGOW)

Paramount Business Jets offers private jet charter flights and luxury airliner charters to and from Wai Sha Airport.

AIRPORT INFORMATION
ICAOZGOW
IATASWA
LOCATIONShantou, China
FACILITY TYPEAIRPORT

At Paramount Business Jets you can hire chartered private jets to and from Wai Sha Airport with as little as 4 hours of notice. All flights booked via Paramount Business Jets are operated by certified direct air carriers that meet and exceed the FAA part 135 and 121 protocol or a foreign equivalent safety authority. Furthermore, Paramount Business Jets subscribes to ARGUS for their third party safety checks of operators, aircraft, and crews prior each and every flight to and from Wai Sha Airport and worldwide.

  • Quote a trip using Wai Sha Airport or call us 24/7 - 365 days a year at +1-877-727-2538.
Questions? Call +1-877-727-2538

METAR Weather Data at Wai Sha Airport, ZGOW, SWA

STATIONZGOW
OBSERVEDTue Jul 16, 03:00 UTC
NOWTue Jul 16, 04:01 UTC
AGE61 min ago
WINDW at 4 mph
VISIBILITY16 miles
CLOUDSscattered clouds
TEMP95°F (35°C)
DEWPT79°F (26°C)
HUMIDITY60%
HEAT INDEX113°F (45°C)
BAROMETER1005 hPa (29.68 in Hg)
METARZGOW 160300Z 28002MPS 9999 SCT033 35/26 Q1005 BECMG 19005MPS

Call us on +1-877-727-2538 (24 Hours) to Hire a Private Jet or Get a Quick Quote.

Find Airports Near any Location

Processing
...